Aviation Digital Data Service (ADDS)

Output produced by TAFs form (1331 UTC 25 September 2017)
found at http://www.aviationweather.gov/adds/tafs/
 
METAR text: WSSS 251330Z 13006KT 100V160 9999 FEW018 BKN300 29/25 Q1009 NOSIG
Conditions at: WSSS (SINGAPORE/CHANGI, SG) observed 1330 UTC 25 September 2017
Temperature: 29.0°C (84°F)
Dewpoint: 25.0°C (77°F) [RH = 79%]
Pressure (altimeter): 29.79 inches Hg (1009.0 mb)
Winds: from the SE (130 degrees) at 7 MPH (6 knots; 3.1 m/s)
Visibility: 6 or more miles (10+ km)
Ceiling: 30000 feet AGL
Clouds: few clouds at 1800 feet AGL
broken clouds at 30000 feet AGL
Weather: no significant weather observed at this time

Forecast for: WSSS (SINGAPORE/CHANGI, SG)
Text: TAF WSSS 251100Z 2512/2618 18008KT 9999 FEW018CB SCT020
Forecast period: 1200 UTC 25 September 2017 to 1800 UTC 26 September 2017
Forecast type: FROM: standard forecast or significant change
Winds: from the S (180 degrees) at 9 MPH (8 knots; 4.2 m/s)
Visibility: 6 or more miles (10+ km)
Clouds: few clouds at 1800 feet AGL
scattered clouds at 2000 feet AGL
Weather: no significant weather forecast for this period
Text: TEMPO 2605/2609 3000 TSRA FEW012CB BKN015
Forecast period: 0500 to 0900 UTC 26 September 2017
Forecast type: TEMPORARY: The following changes expected for less than half the time period
Visibility: 1.86 miles (2.99 km)
Ceiling: 1500 feet AGL
Clouds: few clouds at 1200 feet AGL
broken clouds at 1500 feet AGL
Weather: TSRA  (rain associated with thunderstorm(s))